^^
MeteoGriva-Weather Station Historical Data
Daily Summary for August 23, 2020 Units:  English    Metric   Both
Daily Weekly Monthly Yearly Custom
  High: Low: Average:
Temperature: 53.4 °F 36.3 °F 46.2 °F
Dew Point: 34 °F 12.7 °F 22.8 °F
Humidity: 59% 25% 41%
Wind Speed: 11.7mph 0mph 1.4mph
Wind Gust: 25.1mph - -
Wind- - SW
Pressure: 30.5 in 30.1 in -
Precipitation: 0 in    
Historical Graphs
 
 
Tabular Data for August 23, 2020
Time Temperature Dew Point Pressure Wind Wind Speed Wind Gust Humidity Rainfall Rate (Hourly) solar
00:04 44.1 °F 18.3 °F 30.2 in Calm     35.2% 0 in 0 W/m2
00:09 43.9 °F 18 °F 30.2 in Calm     35% 0 in 0 W/m2
00:14 43.9 °F 18.5 °F 30.2 in Calm     35.7% 0 in 0 W/m2
00:19 43.9 °F 19.4 °F 30.2 in Calm     37.3% 0 in 0 W/m2
00:24 43.7 °F 19.9 °F 30.2 in Calm     38.4% 0 in 0 W/m2
00:29 43.5 °F 19.6 °F 30.2 in Calm   2.5 mph 38.1% 0 in 0 W/m2
00:34 43.5 °F 19 °F 30.2 in Calm   2.5 mph 37.1% 0 in 0 W/m2
00:39 43.5 °F 17.8 °F 30.2 in Calm     35.1% 0 in 0 W/m2
00:44 43.9 °F 17.6 °F 30.2 in Calm     34.6% 0 in 0 W/m2
00:49 44.1 °F 17.2 °F 30.2 in WNW 0.2 mph 2.5 mph 33.9% 0 in 0 W/m2
00:54 44.2 °F 16.2 °F 30.2 in Calm   2.5 mph 32.1% 0 in 0 W/m2
00:59 44.6 °F 14.2 °F 30.2 in WNW 0.1 mph 2.5 mph 28.9% 0 in 0 W/m2
01:04 46.8 °F 13.8 °F 30.2 in Calm     26.3% 0 in 0 W/m2
01:09 48.4 °F 15.6 °F 30.2 in Calm   2.5 mph 26.7% 0 in 0 W/m2
01:14 48.4 °F 15.3 °F 30.2 in Calm     26.3% 0 in 0 W/m2
01:19 48 °F 16.5 °F 30.2 in Calm     28.1% 0 in 0 W/m2
01:24 46.4 °F 16.3 °F 30.2 in Calm     29.8% 0 in 0 W/m2
01:29 45.3 °F 14.9 °F 30.2 in Calm     28.9% 0 in 0 W/m2
01:34 45.5 °F 14.4 °F 30.2 in Calm     28% 0 in 0 W/m2
01:39 45.7 °F 14.4 °F 30.2 in Calm     28% 0 in 0 W/m2
01:44 46 °F 15.1 °F 30.2 in Calm     28.6% 0 in 0 W/m2
01:49 46 °F 14.9 °F 30.2 in Calm     28.2% 0 in 0 W/m2
01:54 46 °F 15.1 °F 30.2 in Calm     28.4% 0 in 0 W/m2
01:59 46 °F 14.5 °F 30.2 in Calm     27.8% 0 in 0 W/m2
02:04 46.8 °F 14.2 °F 30.2 in Calm     26.6% 0 in 0 W/m2
02:09 47.5 °F 14.7 °F 30.2 in Calm     26.6% 0 in 0 W/m2
02:14 47.5 °F 15.1 °F 30.2 in Calm     27% 0 in 0 W/m2
02:19 47.3 °F 15.8 °F 30.2 in NNW 0.2 mph 2.5 mph 28% 0 in 0 W/m2
02:24 46.2 °F 16.5 °F 30.2 in NW 0.2 mph 2.5 mph 30.1% 0 in 0 W/m2
02:29 44.6 °F 16.9 °F 30.2 in Calm   2.5 mph 32.7% 0 in 0 W/m2
02:34 44.4 °F 17.2 °F 30.2 in Calm     33.3% 0 in 0 W/m2
02:39 44.2 °F 17.4 °F 30.2 in Calm     33.7% 0 in 0 W/m2
02:44 44.2 °F 17.1 °F 30.2 in Calm     33.1% 0 in 0 W/m2
02:49 44.6 °F 17.8 °F 30.2 in Calm     33.6% 0 in 0 W/m2
02:54 44.8 °F 17.2 °F 30.2 in Calm     32.8% 0 in 0 W/m2
02:59 44.8 °F 15.4 °F 30.2 in Calm     30.2% 0 in 0 W/m2
03:04 45.5 °F 13.8 °F 30.2 in Calm     27.4% 0 in 0 W/m2
03:09 46.2 °F 13.5 °F 30.2 in Calm     26.1% 0 in 0 W/m2
03:14 46.8 °F 12.7 °F 30.2 in Calm     25% 0 in 0 W/m2
03:19 47.1 °F 13.8 °F 30.2 in Calm     25.8% 0 in 0 W/m2
03:24 47.8 °F 13.8 °F 30.2 in Calm     25% 0 in 0 W/m2
03:29 48.9 °F 14.5 °F 30.2 in Calm     25% 0 in 0 W/m2
03:34 48.9 °F 15.1 °F 30.2 in Calm     25.7% 0 in 0 W/m2
03:39 48.7 °F 15.4 °F 30.2 in Calm     26.1% 0 in 0 W/m2
03:44 48.6 °F 16.2 °F 30.2 in SW 0.8 mph 4.9 mph 27% 0 in 0 W/m2
03:49 48 °F 14.7 °F 30.2 in Calm     26% 0 in 0 W/m2
03:54 48 °F 14.4 °F 30.2 in Calm   2.5 mph 25.7% 0 in 0 W/m2
03:59 48 °F 15.3 °F 30.2 in Calm     26.6% 0 in 0 W/m2
04:04 48 °F 14.7 °F 30.2 in Calm     26% 0 in 0 W/m2
04:09 47.7 °F 15.6 °F 30.2 in SW 0.5 mph 4.9 mph 27.4% 0 in 0 W/m2
04:14 47.7 °F 15.1 °F 30.2 in Calm   2.5 mph 26.7% 0 in 0 W/m2
04:19 47.8 °F 14.2 °F 30.2 in Calm   2.5 mph 25.6% 0 in 0 W/m2
04:24 48 °F 16.2 °F 30.2 in Calm     27.7% 0 in 0 W/m2
04:29 48.6 °F 15.6 °F 30.1 in NW 0.2 mph 2.5 mph 26.4% 0 in 0 W/m2
04:34 48.6 °F 15.1 °F 30.2 in North 0.6 mph 7.6 mph 25.7% 0 in 0 W/m2
04:39 48.4 °F 18 °F 30.2 in NW 1.3 mph 7.6 mph 29.4% 0 in 0 W/m2
04:44 48 °F 18.1 °F 30.2 in NNW 0.1 mph 2.5 mph 30.2% 0 in 0 W/m2
04:49 47.1 °F 16.3 °F 30.2 in West 0.3 mph 2.5 mph 28.8% 0 in 0 W/m2
04:54 47.3 °F 15.3 °F 30.2 in Calm   2.5 mph 27.2% 0 in 0 W/m2
04:59 47.5 °F 15.1 °F 30.2 in Calm     27% 0 in 0 W/m2
05:04 48.4 °F 15.6 °F 30.2 in Calm     26.7% 0 in 0 W/m2
05:09 50.2 °F 16 °F 30.1 in Calm     25.3% 0 in 0 W/m2
05:14 50.2 °F 17.1 °F 30.1 in WNW 0.2 mph 4.9 mph 26.8% 0 in 0 W/m2
05:19 50 °F 16.9 °F 30.1 in Calm   2.5 mph 26.4% 0 in 0 W/m2
05:24 49.3 °F 18 °F 30.1 in NNW 0.6 mph 4.9 mph 28.4% 0 in 0 W/m2
05:29 46.6 °F 17.2 °F 30.1 in WNW 1.2 mph 7.6 mph 30.6% 0 in 0 W/m2
05:34 46.4 °F 18.1 °F 30.2 in Calm   7.6 mph 32% 0 in 0 W/m2
05:39 46.4 °F 17.2 °F 30.2 in Calm   2.5 mph 30.8% 0 in 0 W/m2
05:44 46.4 °F 17.4 °F 30.2 in NNW 0.4 mph 4.9 mph 31% 0 in 0 W/m2
05:49 47.1 °F 18.5 °F 30.2 in Calm     31.8% 0 in 0 W/m2
05:54 46.9 °F 19.2 °F 30.2 in Calm   2.5 mph 32.7% 0 in 0 W/m2
05:59 46.8 °F 18.7 °F 30.2 in NNW 0.5 mph 4.9 mph 32.2% 0 in 0 W/m2
06:04 46.6 °F 18.3 °F 30.2 in NW 0.6 mph 2.5 mph 32% 0 in 0 W/m2
06:09 46.9 °F 19.2 °F 30.2 in Calm   2.5 mph 32.7% 0 in 0 W/m2
06:14 46.9 °F 19.4 °F 30.2 in Calm     33% 0 in 0 W/m2
06:19 46.8 °F 19.8 °F 30.2 in NNW 0.5 mph 4.9 mph 33.8% 0 in 0 W/m2
06:24 46.6 °F 20.1 °F 30.2 in SW 0.4 mph 4.9 mph 34.8% 0 in 0 W/m2
06:29 45 °F 19 °F 30.2 in Calm   4.9 mph 35.1% 0 in 0 W/m2
06:34 45 °F 18.5 °F 30.2 in Calm   2.5 mph 34.4% 0 in 0 W/m2
06:39 45.1 °F 18.3 °F 30.2 in SSW 0.4 mph 2.5 mph 33.8% 0 in 0 W/m2
06:44 45.5 °F 16.2 °F 30.2 in NNW 1.5 mph 7.6 mph 30.4% 0 in 0 W/m2
06:49 44.2 °F 19 °F 30.2 in NNW 0.9 mph 7.6 mph 36% 0 in 0 W/m2
06:54 44.4 °F 18.5 °F 30.2 in NW 0.1 mph 4.9 mph 35.1% 0 in 0 W/m2
06:59 44.6 °F 18.5 °F 30.2 in South 0.9 mph 4.9 mph 34.6% 0 in 0 W/m2
07:04 44.8 °F 19.6 °F 30.2 in SSW 0.7 mph 4.9 mph 36.3% 0 in 0 W/m2
07:09 45 °F 19.6 °F 30.2 in Calm     36% 0 in 0 W/m2
07:14 44.8 °F 20.3 °F 30.2 in Calm     37.3% 0 in 0 W/m2
07:19 44.6 °F 20.8 °F 30.2 in WNW 0.1 mph 4.9 mph 38.5% 0 in 0 W/m2
07:24 44.4 °F 20.8 °F 30.2 in Calm   2.5 mph 38.6% 0 in 0 W/m2
07:29 44.8 °F 20.3 °F 30.2 in Calm     37.2% 0 in 0 W/m2
07:34 44.6 °F 21 °F 30.2 in Calm     38.9% 0 in 0 W/m2
07:39 44.4 °F 20.8 °F 30.2 in Calm     38.9% 0 in 0 W/m2
07:44 44.2 °F 20.7 °F 30.2 in SSW 0.6 mph 2.5 mph 38.8% 0 in 0 W/m2
07:49 43.3 °F 20.3 °F 30.2 in WSW 0.6 mph 4.9 mph 39.4% 0 in 0 W/m2
07:54 43.2 °F 19.9 °F 30.2 in SW 0.1 mph 2.5 mph 39% 0 in 2 W/m2
07:59 43.3 °F 19.9 °F 30.2 in West 0.9 mph 4.9 mph 38.7% 0 in 4 W/m2
08:04 43.5 °F 20.1 °F 30.2 in North 0.1 mph 4.9 mph 39% 0 in 7 W/m2
08:09 42.4 °F 20.7 °F 30.2 in Calm   2.5 mph 41.6% 0 in 19 W/m2
08:14 42.3 °F 19.9 °F 30.2 in SW 0.3 mph 4.9 mph 40.3% 0 in 24 W/m2
08:19 42.6 °F 19.9 °F 30.2 in SSW 0.2 mph 2.5 mph 39.8% 0 in 29 W/m2
08:24 43.3 °F 19.9 °F 30.2 in South 0.5 mph 4.9 mph 39% 0 in 33 W/m2
08:29 45.7 °F 21.7 °F 30.2 in SSW 0.4 mph 4.9 mph 38.4% 0 in 38 W/m2
08:34 46.2 °F 21.4 °F 30.2 in SSE 0.6 mph 4.9 mph 37% 0 in 42 W/m2
08:39 46.6 °F 22.6 °F 30.2 in South 1.4 mph 7.6 mph 38.4% 0 in 47 W/m2
08:44 46.6 °F 23.9 °F 30.2 in South 2.3 mph 7.6 mph 40.7% 0 in 51 W/m2
08:49 46.8 °F 24.8 °F 30.2 in South 0.6 mph 4.9 mph 42.1% 0 in 55 W/m2
08:54 46.6 °F 25.3 °F 30.3 in SSW 0.9 mph 7.6 mph 43.1% 0 in 58 W/m2
08:59 46.8 °F 24.8 °F 30.3 in South 3.3 mph 7.6 mph 41.9% 0 in 62 W/m2
09:04 46.8 °F 25.3 °F 30.3 in SSW 2.5 mph 4.9 mph 42.7% 0 in 65 W/m2
09:09 48 °F 25.3 °F 30.3 in SSW 1 mph 4.9 mph 41% 0 in 67 W/m2
09:14 48.7 °F 26.1 °F 30.3 in Calm     41% 0 in 70 W/m2
09:19 48.9 °F 26.4 °F 30.3 in South 3.3 mph 7.6 mph 41.4% 0 in 72 W/m2
09:24 49.1 °F 27 °F 30.3 in SSE 0.8 mph 7.6 mph 41.8% 0 in 75 W/m2
09:29 51.1 °F 27.9 °F 30.3 in South 0.6 mph 4.9 mph 40.6% 0 in 76 W/m2
09:34 52 °F 29.5 °F 30.3 in SSE 0.6 mph 7.6 mph 41.8% 0 in 79 W/m2
09:39 52 °F 29.5 °F 30.3 in South 1.9 mph 4.9 mph 41.9% 0 in 80 W/m2
09:44 51.8 °F 30.4 °F 30.3 in South 3.5 mph 10.1 mph 43.6% 0 in 80 W/m2
09:49 51.4 °F 30.2 °F 30.3 in South 1.5 mph 7.6 mph 43.8% 0 in 81 W/m2
09:54 51.4 °F 29.8 °F 30.3 in South 3.2 mph 7.6 mph 43.3% 0 in 82 W/m2
09:59 51.3 °F 30.4 °F 30.3 in SSW 1.9 mph 10.1 mph 44.8% 0 in 82 W/m2
10:04 51.1 °F 31.8 °F 30.3 in South 2.5 mph 7.6 mph 47.6% 0 in 82 W/m2
10:09 50.9 °F 31.8 °F 30.3 in South 4.8 mph 10.1 mph 47.8% 0 in 83 W/m2
10:14 50.9 °F 31.8 °F 30.3 in South 2.9 mph 10.1 mph 47.8% 0 in 84 W/m2
10:19 50.9 °F 32.2 °F 30.3 in South 4.5 mph 12.5 mph 48.8% 0 in 84 W/m2
10:24 51.1 °F 32.5 °F 30.3 in SSW 2.4 mph 12.5 mph 49% 0 in 84 W/m2
10:29 51.4 °F 33.3 °F 30.3 in South 4.1 mph 10.1 mph 49.7% 0 in 85 W/m2
10:34 51.4 °F 33.8 °F 30.3 in ENE 1.1 mph 10.1 mph 50.3% 0 in 85 W/m2
10:39 51.3 °F 33.1 °F 30.3 in Calm   4.9 mph 49.6% 0 in 86 W/m2
10:44 51.3 °F 32.2 °F 30.3 in Calm   2.5 mph 48% 0 in 89 W/m2
10:49 51.1 °F 32.2 °F 30.3 in Calm   2.5 mph 48.2% 0 in 91 W/m2
10:54 50.9 °F 32.5 °F 30.3 in SE 1.3 mph 7.6 mph 49.2% 0 in 92 W/m2
10:59 51.1 °F 32.4 °F 30.3 in ENE 2.1 mph 10.1 mph 48.8% 0 in 94 W/m2
11:04 50.7 °F 34 °F 30.3 in NNE 0.7 mph 7.6 mph 52.2% 0 in 96 W/m2
11:09 49.5 °F 32.4 °F 30.3 in NE 1.2 mph 4.9 mph 51.4% 0 in 99 W/m2
11:14 48.7 °F 31.5 °F 30.3 in NNE 0.6 mph 4.9 mph 50.9% 0 in 102 W/m2
11:19 49.1 °F 30.6 °F 30.3 in Calm     48.7% 0 in 106 W/m2
11:24 49.6 °F 30.9 °F 30.3 in East 0.9 mph 7.6 mph 48.3% 0 in 110 W/m2
11:29 50.2 °F 31.3 °F 30.3 in NE 2.6 mph 10.1 mph 48% 0 in 112 W/m2
11:34 50.5 °F 32 °F 30.3 in NE 2.1 mph 10.1 mph 49% 0 in 116 W/m2
11:39 50.5 °F 31.8 °F 30.4 in North 2.6 mph 7.6 mph 48.4% 0 in 120 W/m2
11:44 50.5 °F 31.5 °F 30.4 in North 2 mph 10.1 mph 47.6% 0 in 124 W/m2
11:49 50.9 °F 31.1 °F 30.3 in NNE 0.8 mph 10.1 mph 46.6% 0 in 127 W/m2
11:54 51.4 °F 30.7 °F 30.3 in North 2.1 mph 10.1 mph 45.1% 0 in 122 W/m2
11:59 51.4 °F 30.2 °F 30.3 in NE 0.4 mph 4.9 mph 43.8% 0 in 93 W/m2
12:04 51.6 °F 29.7 °F 30.3 in NNW 2.9 mph 10.1 mph 42.7% 0 in 87 W/m2
12:09 51.6 °F 28.8 °F 30.3 in North 7.6 mph 17.4 mph 41% 0 in 85 W/m2
12:14 51.6 °F 29.3 °F 30.4 in NNE 4.2 mph 12.5 mph 42% 0 in 84 W/m2
12:19 51.6 °F 29.7 °F 30.3 in NNW 4.4 mph 10.1 mph 42.8% 0 in 95 W/m2
12:24 51.6 °F 30 °F 30.4 in North 5.1 mph 15 mph 43.4% 0 in 144 W/m2
12:29 51.4 °F 29.7 °F 30.3 in North 3.5 mph 12.5 mph 43% 0 in 175 W/m2
12:34 51.3 °F 29.5 °F 30.3 in NNE 3.7 mph 12.5 mph 43% 0 in 186 W/m2
12:39 51.3 °F 29.3 °F 30.4 in North 4.8 mph 12.5 mph 42.4% 0 in 197 W/m2
12:44 51.4 °F 29.3 °F 30.4 in NNE 6.7 mph 15 mph 42.4% 0 in 207 W/m2
12:49 51.6 °F 28.9 °F 30.3 in North 5.5 mph 12.5 mph 41.2% 0 in 219 W/m2
12:54 52.2 °F 27.9 °F 30.3 in North 7.6 mph 15 mph 39% 0 in 232 W/m2
12:59 52.3 °F 26.4 °F 30.3 in NNW 6.5 mph 15 mph 36.4% 0 in 247 W/m2
13:04 52.3 °F 25.7 °F 30.3 in North 7.3 mph 12.5 mph 35.1% 0 in 261 W/m2
13:09 52.7 °F 25.2 °F 30.3 in North 6.3 mph 17.4 mph 33.9% 0 in 271 W/m2
13:14 53.4 °F 24.8 °F 30.3 in North 6.6 mph 15 mph 32.8% 0 in 283 W/m2
13:19 53.4 °F 23.9 °F 30.3 in NNE 5 mph 15 mph 31.6% 0 in 293 W/m2
13:24 53.4 °F 23.7 °F 30.3 in NNE 6.6 mph 20.1 mph 31.3% 0 in 301 W/m2
13:29 53.4 °F 23.7 °F 30.3 in NNE 6.1 mph 15 mph 31.2% 0 in 307 W/m2
13:34 53.2 °F 23.4 °F 30.3 in North 7.6 mph 17.4 mph 31% 0 in 310 W/m2
13:39 53.4 °F 23.5 °F 30.3 in North 9.2 mph 17.4 mph 31% 0 in 313 W/m2
13:44 53.2 °F 23.4 °F 30.3 in NNE 10.7 mph 17.4 mph 31% 0 in 314 W/m2
13:49 53.1 °F 23.2 °F 30.3 in NNE 8.8 mph 15 mph 30.8% 0 in 317 W/m2
13:54 52.7 °F 23.4 °F 30.3 in NNW 11.2 mph 20.1 mph 31.7% 0 in 320 W/m2
13:59 52.7 °F 24.1 °F 30.3 in North 10.4 mph 20.1 mph 32.6% 0 in 320 W/m2
14:04 52.7 °F 23.7 °F 30.3 in North 11.4 mph 20.1 mph 32.1% 0 in 321 W/m2
14:09 52.5 °F 23.5 °F 30.3 in North 10.9 mph 20.1 mph 32% 0 in 320 W/m2
14:14 52.3 °F 23.4 °F 30.3 in North 11.7 mph 25.1 mph 32% 0 in 320 W/m2
14:19 52.3 °F 23.4 °F 30.3 in North 9.3 mph 20.1 mph 32% 0 in 320 W/m2
14:24 52.3 °F 22.8 °F 30.3 in North 10.5 mph 20.1 mph 31.3% 0 in 319 W/m2
14:29 52.3 °F 22.5 °F 30.3 in North 9.1 mph 17.4 mph 30.8% 0 in 318 W/m2
14:34 52.5 °F 21.4 °F 30.3 in North 8.4 mph 17.4 mph 29.2% 0 in 316 W/m2
14:39 52.5 °F 22.5 °F 30.3 in North 5.9 mph 15 mph 30.6% 0 in 312 W/m2
14:44 52.5 °F 21.9 °F 30.3 in NNW 6.8 mph 20.1 mph 30% 0 in 314 W/m2
14:49 52.3 °F 21.7 °F 30.3 in North 5.2 mph 15 mph 30% 0 in 313 W/m2
14:54 52.2 °F 21.7 °F 30.3 in NNW 4.7 mph 12.5 mph 30% 0 in 310 W/m2
14:59 52.2 °F 21.7 °F 30.3 in North 6.2 mph 12.5 mph 30% 0 in 294 W/m2
15:04 52.2 °F 21 °F 30.3 in NW 3.2 mph 10.1 mph 29.2% 0 in 294 W/m2
15:09 52.2 °F 20.8 °F 30.3 in North 2.7 mph 10.1 mph 29% 0 in 282 W/m2
15:14 52 °F 20.7 °F 30.3 in North 0.9 mph 7.6 mph 29% 0 in 281 W/m2
15:19 52 °F 20.7 °F 30.3 in North 3.9 mph 12.5 mph 29% 0 in 281 W/m2
15:24 52 °F 21.6 °F 30.3 in NNE 3.9 mph 12.5 mph 29.9% 0 in 269 W/m2
15:29 52 °F 21.6 °F 30.3 in NNW 4.7 mph 10.1 mph 30% 0 in 262 W/m2
15:34 51.3 °F 20.8 °F 30.3 in North 3.7 mph 10.1 mph 30% 0 in 258 W/m2
15:39 51.3 °F 20.8 °F 30.3 in North 5.2 mph 10.1 mph 30% 0 in 249 W/m2
15:44 51.1 °F 21.4 °F 30.3 in North 2.5 mph 7.6 mph 30.8% 0 in 244 W/m2
15:49 51.1 °F 21.6 °F 30.3 in NNE 2.8 mph 7.6 mph 30.9% 0 in 239 W/m2
15:54 50.9 °F 21.4 °F 30.3 in NNW 4.2 mph 10.1 mph 31% 0 in 230 W/m2
15:59 50.9 °F 21.6 °F 30.3 in NNW 2.9 mph 7.6 mph 31.1% 0 in 218 W/m2
16:04 50.7 °F 21.9 °F 30.4 in NW 0.6 mph 4.9 mph 32% 0 in 141 W/m2
16:09 50.5 °F 21.9 °F 30.4 in North 2.2 mph 7.6 mph 32.2% 0 in 58 W/m2
16:14 49.1 °F 21.2 °F 30.3 in North 1.5 mph 7.6 mph 33% 0 in 43 W/m2
16:19 49.1 °F 21.6 °F 30.4 in NNW 1.6 mph 7.6 mph 33.6% 0 in 40 W/m2
16:24 48.9 °F 23.2 °F 30.4 in Calm   2.5 mph 35.8% 0 in 38 W/m2
16:29 48.7 °F 23.7 °F 30.4 in Calm     37.1% 0 in 35 W/m2
16:34 48 °F 25 °F 30.4 in Calm     40.2% 0 in 33 W/m2
16:39 48 °F 23.7 °F 30.4 in Calm     38.2% 0 in 31 W/m2
16:44 48 °F 24.1 °F 30.4 in Calm     38.8% 0 in 29 W/m2
16:49 47.8 °F 25.9 °F 30.4 in Calm     42% 0 in 27 W/m2
16:54 47.5 °F 25.2 °F 30.4 in SSW 0.1 mph 4.9 mph 41.1% 0 in 25 W/m2
16:59 47.3 °F 27.7 °F 30.4 in South 0.2 mph 4.9 mph 46.2% 0 in 22 W/m2
17:04 47.1 °F 26.8 °F 30.4 in Calm   2.5 mph 45% 0 in 20 W/m2
17:09 46.8 °F 26.4 °F 30.4 in Calm     44.7% 0 in 17 W/m2
17:14 45.3 °F 25.3 °F 30.4 in SW 0.4 mph 7.6 mph 45.1% 0 in 14 W/m2
17:19 45.1 °F 25.9 °F 30.4 in SSW 0.4 mph 4.9 mph 46.7% 0 in 11 W/m2
17:24 45.1 °F 26.4 °F 30.4 in SSW 1.1 mph 4.9 mph 47.8% 0 in 8 W/m2
17:29 45 °F 27 °F 30.4 in Calm   2.5 mph 49.2% 0 in 5 W/m2
17:34 43.7 °F 26.2 °F 30.4 in Calm     49.8% 0 in 3 W/m2
17:39 43.5 °F 25.7 °F 30.4 in Calm     49.3% 0 in 0 W/m2
17:44 43.3 °F 26.1 °F 30.4 in Calm     50.3% 0 in 0 W/m2
17:49 43.2 °F 25.9 °F 30.4 in Calm     50.3% 0 in 0 W/m2
17:54 42.3 °F 25.9 °F 30.4 in Calm     52% 0 in 0 W/m2
17:59 42.3 °F 25.9 °F 30.4 in Calm     52% 0 in 0 W/m2
18:04 42.1 °F 25.5 °F 30.4 in Calm     51.7% 0 in 0 W/m2
18:09 42.1 °F 25.3 °F 30.4 in Calm     51% 0 in 0 W/m2
18:14 41.9 °F 25.2 °F 30.4 in Calm     50.9% 0 in 0 W/m2
18:19 41.9 °F 24.4 °F 30.4 in Calm     49.4% 0 in 0 W/m2
18:24 42.3 °F 24.1 °F 30.4 in Calm     48.4% 0 in 0 W/m2
18:29 42.4 °F 25.3 °F 30.4 in Calm     50.6% 0 in 0 W/m2
18:34 41.5 °F 25 °F 30.4 in Calm     51.8% 0 in 0 W/m2
18:39 41.4 °F 23.7 °F 30.4 in Calm     49% 0 in 0 W/m2
18:44 41.7 °F 23 °F 30.4 in Calm     47% 0 in 0 W/m2
18:49 41.9 °F 23 °F 30.4 in Calm     46.7% 0 in 0 W/m2
18:54 43.7 °F 24.4 °F 30.4 in Calm     46.4% 0 in 0 W/m2
18:59 43.9 °F 26.2 °F 30.4 in Calm     49.8% 0 in 0 W/m2
19:04 43.7 °F 26.6 °F 30.4 in Calm     50.8% 0 in 0 W/m2
19:09 43.3 °F 26.6 °F 30.4 in Calm     51.2% 0 in 0 W/m2
19:14 42.8 °F 25.7 °F 30.4 in Calm     50.3% 0 in 0 W/m2
19:19 42.4 °F 25.3 °F 30.4 in Calm     50.3% 0 in 0 W/m2
19:24 42.6 °F 26.2 °F 30.4 in Calm     52% 0 in 0 W/m2
19:29 42.6 °F 26.6 °F 30.4 in Calm     52.8% 0 in 0 W/m2
19:34 42.8 °F 27.3 °F 30.4 in Calm     54% 0 in 0 W/m2
19:39 42.8 °F 26.4 °F 30.4 in Calm     52.1% 0 in 0 W/m2
19:44 43 °F 26.1 °F 30.4 in Calm     51% 0 in 0 W/m2
19:49 43.2 °F 26.2 °F 30.4 in Calm     51% 0 in 0 W/m2
19:54 43.5 °F 27 °F 30.4 in SSW 0.1 mph 2.5 mph 51.9% 0 in 0 W/m2
19:59 43.5 °F 27.9 °F 30.4 in SW 0.2 mph 2.5 mph 53.7% 0 in 0 W/m2
20:04 43.5 °F 27.1 °F 30.4 in SSW 0.2 mph 2.5 mph 52.3% 0 in 0 W/m2
20:09 43.3 °F 26.2 °F 30.4 in Calm     50.9% 0 in 0 W/m2
20:14 42.4 °F 25 °F 30.4 in Calm     49.9% 0 in 0 W/m2
20:19 41.9 °F 24.4 °F 30.4 in Calm     49.7% 0 in 0 W/m2
20:24 41.9 °F 25.5 °F 30.4 in Calm     52.1% 0 in 0 W/m2
20:29 41.7 °F 26.1 °F 30.4 in Calm     53.6% 0 in 0 W/m2
20:34 41.4 °F 26.6 °F 30.4 in Calm   2.5 mph 55.2% 0 in 0 W/m2
20:39 41.2 °F 26.6 °F 30.4 in Calm     55.9% 0 in 0 W/m2
20:44 41.4 °F 26.2 °F 30.4 in Calm     54.7% 0 in 0 W/m2
20:49 41.4 °F 26.2 °F 30.5 in SW 0.2 mph 2.5 mph 54.8% 0 in 0 W/m2
20:54 41.4 °F 26.1 °F 30.5 in South 0.4 mph 4.9 mph 54.3% 0 in 0 W/m2
20:59 41.2 °F 25.5 °F 30.5 in SW 0.4 mph 4.9 mph 53.3% 0 in 0 W/m2
21:04 41.2 °F 26.1 °F 30.5 in Calm     54.7% 0 in 0 W/m2
21:09 41 °F 26.1 °F 30.5 in Calm   4.9 mph 55% 0 in 0 W/m2
21:14 40.5 °F 25.7 °F 30.5 in SSW 0.9 mph 4.9 mph 55.3% 0 in 0 W/m2
21:19 40.1 °F 25.2 °F 30.5 in South 0.8 mph 4.9 mph 55% 0 in 0 W/m2
21:24 40.1 °F 25.7 °F 30.5 in Calm   4.9 mph 56% 0 in 0 W/m2
21:29 39.9 °F 25.9 °F 30.5 in Calm     57% 0 in 0 W/m2
21:34 39 °F 25.5 °F 30.5 in Calm     57.8% 0 in 0 W/m2
21:39 38.5 °F 25 °F 30.5 in Calm   2.5 mph 58% 0 in 0 W/m2
21:44 38.5 °F 25.2 °F 30.5 in Calm     58.8% 0 in 0 W/m2
21:49 38.3 °F 25.2 °F 30.5 in Calm     59% 0 in 0 W/m2
21:54 37.9 °F 24.4 °F 30.5 in Calm   2.5 mph 58.3% 0 in 0 W/m2
21:59 37.2 °F 23.7 °F 30.5 in Calm     58% 0 in 0 W/m2
22:04 37.2 °F 23.5 °F 30.5 in West 0.2 mph 2.5 mph 57.3% 0 in 0 W/m2
22:09 37.2 °F 23.4 °F 30.5 in Calm   2.5 mph 57% 0 in 0 W/m2
22:14 37 °F 23.7 °F 30.5 in Calm   2.5 mph 57.8% 0 in 0 W/m2
22:19 36.9 °F 23.5 °F 30.5 in Calm     58% 0 in 0 W/m2
22:24 36.9 °F 23.9 °F 30.5 in Calm     58.9% 0 in 0 W/m2
22:29 36.9 °F 23.5 °F 30.5 in Calm     58.1% 0 in 0 W/m2
22:34 36.7 °F 23.4 °F 30.5 in Calm     58% 0 in 0 W/m2
22:39 36.7 °F 22.8 °F 30.5 in Calm     57.2% 0 in 0 W/m2
22:44 36.7 °F 22.6 °F 30.5 in Calm     56.2% 0 in 0 W/m2
22:49 36.7 °F 22.5 °F 30.5 in WNW 0.2 mph 2.5 mph 56% 0 in 0 W/m2
22:54 36.9 °F 22.6 °F 30.5 in NW 0.2 mph 2.5 mph 56% 0 in 0 W/m2
22:59 37 °F 22.8 °F 30.5 in NW 0.2 mph 2.5 mph 56.1% 0 in 0 W/m2
23:04 37 °F 23 °F 30.5 in Calm   2.5 mph 56.6% 0 in 0 W/m2
23:09 37 °F 23.2 °F 30.5 in NW 0.1 mph 2.5 mph 56.8% 0 in 0 W/m2
23:14 37 °F 22.8 °F 30.5 in Calm   2.5 mph 56% 0 in 0 W/m2
23:19 37 °F 23.2 °F 30.5 in Calm     56.8% 0 in 0 W/m2
23:24 37 °F 23 °F 30.5 in Calm     56.4% 0 in 0 W/m2
23:29 37 °F 22.8 °F 30.5 in Calm     56% 0 in 0 W/m2
23:34 37.2 °F 23 °F 30.5 in WNW 0.1 mph 2.5 mph 56% 0 in 0 W/m2
23:39 37.8 °F 23.4 °F 30.5 in Calm     56% 0 in 0 W/m2
23:44 37.6 °F 23.5 °F 30.5 in Calm     56.7% 0 in 0 W/m2
23:49 37.6 °F 23.5 °F 30.5 in Calm     56.3% 0 in 0 W/m2
23:54 37.2 °F 23.7 °F 30.5 in Calm     57.8% 0 in 0 W/m2
23:59 36.3 °F 22.6 °F 30.5 in West 0.2 mph 2.5 mph 57.3% 0 in 0 W/m2
Juneau County Weather
Compliments of Weather Underground - 2 mb